sensor_id;sensor_type;location;lat;lon;timestamp;pressure;altitude;pressure_sealevel;temperature;humidity
69911;BME280;63555;49.920;17.868;2023-05-01T00:04:49;99185.69;;;1.56;72.51
69911;BME280;63555;49.920;17.868;2023-05-01T00:09:50;99191.28;;;1.44;72.93
69911;BME280;63555;49.920;17.868;2023-05-01T00:14:52;99189.03;;;1.34;73.18
69911;BME280;63555;49.920;17.868;2023-05-01T00:19:53;99183.88;;;1.32;72.94
69911;BME280;63555;49.920;17.868;2023-05-01T00:24:53;99176.19;;;1.29;73.04
69911;BME280;63555;49.920;17.868;2023-05-01T00:29:53;99172.94;;;1.22;72.96
69911;BME280;63555;49.920;17.868;2023-05-01T00:34:54;99177.50;;;1.14;73.37
69911;BME280;63555;49.920;17.868;2023-05-01T00:39:56;99171.56;;;1.11;73.33
69911;BME280;63555;49.920;17.868;2023-05-01T00:44:57;99176.03;;;1.06;73.62
69911;BME280;63555;49.920;17.868;2023-05-01T00:49:58;99166.75;;;0.99;73.59
69911;BME280;63555;49.920;17.868;2023-05-01T00:54:59;99154.03;;;0.89;73.63
69911;BME280;63555;49.920;17.868;2023-05-01T00:59:59;99153.44;;;0.80;73.56
69911;BME280;63555;49.920;17.868;2023-05-01T01:05:00;99155.28;;;0.76;74.29
69911;BME280;63555;49.920;17.868;2023-05-01T01:10:15;99154.50;;;0.73;74.28
69911;BME280;63555;49.920;17.868;2023-05-01T01:20:48;99141.81;;;0.63;74.28
69911;BME280;63555;49.920;17.868;2023-05-01T01:26:07;99142.13;;;0.53;74.38
69911;BME280;63555;49.920;17.868;2023-05-01T01:31:19;99141.38;;;0.49;74.46
69911;BME280;63555;49.920;17.868;2023-05-01T01:36:40;99138.16;;;0.41;74.91
69911;BME280;63555;49.920;17.868;2023-05-01T01:41:46;99141.63;;;0.40;74.65
69911;BME280;63555;49.920;17.868;2023-05-01T01:46:49;99142.56;;;0.38;74.67
69911;BME280;63555;49.920;17.868;2023-05-01T01:51:52;99139.84;;;0.42;75.28
69911;BME280;63555;49.920;17.868;2023-05-01T01:56:55;99124.28;;;0.42;74.75
69911;BME280;63555;49.920;17.868;2023-05-01T02:01:59;99137.44;;;0.36;74.81
69911;BME280;63555;49.920;17.868;2023-05-01T02:07:00;99126.28;;;0.32;74.77
69911;BME280;63555;49.920;17.868;2023-05-01T02:12:04;99121.31;;;0.25;75.15
69911;BME280;63555;49.920;17.868;2023-05-01T02:17:07;99111.13;;;0.19;74.74
69911;BME280;63555;49.920;17.868;2023-05-01T02:22:09;99110.53;;;0.09;75.13
69911;BME280;63555;49.920;17.868;2023-05-01T02:27:15;99109.94;;;-0.02;75.25
69911;BME280;63555;49.920;17.868;2023-05-01T02:32:19;99105.81;;;-0.09;75.07
69911;BME280;63555;49.920;17.868;2023-05-01T02:37:19;99104.28;;;-0.16;75.04
69911;BME280;63555;49.920;17.868;2023-05-01T02:42:21;99105.38;;;-0.25;75.41
69911;BME280;63555;49.920;17.868;2023-05-01T02:47:23;99109.88;;;-0.32;75.52
69911;BME280;63555;49.920;17.868;2023-05-01T02:52:26;99101.53;;;-0.43;75.54
69911;BME280;63555;49.920;17.868;2023-05-01T02:57:27;99108.63;;;-0.49;75.89
69911;BME280;63555;49.920;17.868;2023-05-01T03:02:27;99107.88;;;-0.54;76.05
69911;BME280;63555;49.920;17.868;2023-05-01T03:07:28;99100.19;;;-0.57;76.27
69911;BME280;63555;49.920;17.868;2023-05-01T03:12:34;99102.97;;;-0.65;76.41
69911;BME280;63555;49.920;17.868;2023-05-01T03:17:34;99108.16;;;-0.65;76.79
69911;BME280;63555;49.920;17.868;2023-05-01T03:22:34;99096.09;;;-0.66;76.64
69911;BME280;63555;49.920;17.868;2023-05-01T03:27:35;99101.28;;;-0.66;76.63
69911;BME280;63555;49.920;17.868;2023-05-01T03:32:35;99106.53;;;-0.69;76.36
69911;BME280;63555;49.920;17.868;2023-05-01T03:37:36;99107.38;;;-0.69;76.58
69911;BME280;63555;49.920;17.868;2023-05-01T03:42:36;99105.63;;;-0.68;76.89
69911;BME280;63555;49.920;17.868;2023-05-01T03:47:36;99109.03;;;-0.66;76.78
69911;BME280;63555;49.920;17.868;2023-05-01T03:52:37;99101.19;;;-0.63;77.11
69911;BME280;63555;49.920;17.868;2023-05-01T03:57:37;99102.84;;;-0.60;77.20
69911;BME280;63555;49.920;17.868;2023-05-01T04:02:38;99100.91;;;-0.52;76.98
69911;BME280;63555;49.920;17.868;2023-05-01T04:07:38;99101.50;;;-0.41;77.01
69911;BME280;63555;49.920;17.868;2023-05-01T04:12:39;99095.22;;;-0.33;76.72
69911;BME280;63555;49.920;17.868;2023-05-01T04:17:40;99083.91;;;-0.30;77.10
69911;BME280;63555;49.920;17.868;2023-05-01T04:22:42;99080.34;;;-0.26;77.30
69911;BME280;63555;49.920;17.868;2023-05-01T04:27:43;99087.16;;;-0.22;77.38
69911;BME280;63555;49.920;17.868;2023-05-01T04:32:43;99080.88;;;-0.13;78.00
69911;BME280;63555;49.920;17.868;2023-05-01T04:37:43;99089.88;;;0.06;77.92
69911;BME280;63555;49.920;17.868;2023-05-01T04:42:44;99083.28;;;0.25;77.90
69911;BME280;63555;49.920;17.868;2023-05-01T04:47:45;99084.69;;;0.36;77.55
69911;BME280;63555;49.920;17.868;2023-05-01T04:52:45;99074.84;;;0.47;77.78
69911;BME280;63555;49.920;17.868;2023-05-01T04:57:46;99078.88;;;0.57;78.00
69911;BME280;63555;49.920;17.868;2023-05-01T05:02:46;99058.63;;;0.68;78.11
69911;BME280;63555;49.920;17.868;2023-05-01T05:07:46;99064.25;;;0.82;78.01
69911;BME280;63555;49.920;17.868;2023-05-01T05:12:47;99062.94;;;0.97;77.97
69911;BME280;63555;49.920;17.868;2023-05-01T05:17:47;99060.69;;;1.13;77.96
69911;BME280;63555;49.920;17.868;2023-05-01T05:22:48;99071.31;;;1.32;77.99
69911;BME280;63555;49.920;17.868;2023-05-01T05:27:48;99061.75;;;1.58;78.50
69911;BME280;63555;49.920;17.868;2023-05-01T05:32:48;99066.91;;;1.85;78.04
69911;BME280;63555;49.920;17.868;2023-05-01T05:37:49;99056.41;;;2.11;78.18
69911;BME280;63555;49.920;17.868;2023-05-01T05:42:49;99057.25;;;2.35;78.17
69911;BME280;63555;49.920;17.868;2023-05-01T05:47:50;99055.44;;;2.61;77.95
69911;BME280;63555;49.920;17.868;2023-05-01T05:52:50;99063.84;;;2.89;77.96
69911;BME280;63555;49.920;17.868;2023-05-01T05:57:51;99058.97;;;3.24;78.12
69911;BME280;63555;49.920;17.868;2023-05-01T06:02:51;99053.25;;;3.97;79.53
69911;BME280;63555;49.920;17.868;2023-05-01T06:07:51;99055.91;;;5.61;79.91
69911;BME280;63555;49.920;17.868;2023-05-01T06:12:52;99045.13;;;7.88;77.07
69911;BME280;63555;49.920;17.868;2023-05-01T06:17:52;99043.81;;;9.99;73.32
69911;BME280;63555;49.920;17.868;2023-05-01T06:22:52;99040.44;;;11.91;69.49
69911;BME280;63555;49.920;17.868;2023-05-01T06:27:53;99037.69;;;13.36;66.43
69911;BME280;63555;49.920;17.868;2023-05-01T06:32:56;99034.97;;;14.52;63.79
69911;BME280;63555;49.920;17.868;2023-05-01T06:37:56;99031.72;;;15.67;60.98
69911;BME280;63555;49.920;17.868;2023-05-01T06:42:57;99020.72;;;16.83;57.59
69911;BME280;63555;49.920;17.868;2023-05-01T06:47:57;99018.03;;;17.81;55.39
69911;BME280;63555;49.920;17.868;2023-05-01T06:52:57;99014.03;;;18.63;52.41
69911;BME280;63555;49.920;17.868;2023-05-01T06:58:00;99010.91;;;19.26;50.31
69911;BME280;63555;49.920;17.868;2023-05-01T07:03:00;99010.28;;;19.97;48.10
69911;BME280;63555;49.920;17.868;2023-05-01T07:08:02;99004.75;;;20.62;46.31
69911;BME280;63555;49.920;17.868;2023-05-01T07:13:03;99001.88;;;21.57;44.25
69911;BME280;63555;49.920;17.868;2023-05-01T07:18:03;99003.47;;;22.27;41.69
69911;BME280;63555;49.920;17.868;2023-05-01T07:23:07;98995.94;;;22.51;40.46
69911;BME280;63555;49.920;17.868;2023-05-01T07:28:08;98987.97;;;22.87;38.94
69911;BME280;63555;49.920;17.868;2023-05-01T07:33:09;98992.13;;;23.62;37.95
69911;BME280;63555;49.920;17.868;2023-05-01T07:38:09;98983.22;;;23.90;36.39
69911;BME280;63555;49.920;17.868;2023-05-01T07:43:10;98976.41;;;24.50;34.71
69911;BME280;63555;49.920;17.868;2023-05-01T07:48:10;98978.84;;;24.92;33.78
69911;BME280;63555;49.920;17.868;2023-05-01T07:53:11;98976.34;;;25.65;32.36
69911;BME280;63555;49.920;17.868;2023-05-01T07:58:11;98973.22;;;26.34;31.49
69911;BME280;63555;49.920;17.868;2023-05-01T08:03:11;98966.78;;;26.86;29.48
69911;BME280;63555;49.920;17.868;2023-05-01T08:08:12;98968.22;;;27.34;28.87
69911;BME280;63555;49.920;17.868;2023-05-01T08:13:18;98960.25;;;27.70;28.94
69911;BME280;63555;49.920;17.868;2023-05-01T08:18:18;98958.34;;;28.02;28.34
69911;BME280;63555;49.920;17.868;2023-05-01T08:23:19;98959.63;;;28.61;27.29
69911;BME280;63555;49.920;17.868;2023-05-01T08:28:22;98957.66;;;28.87;26.38
69911;BME280;63555;49.920;17.868;2023-05-01T08:33:22;98947.53;;;29.35;26.43
69911;BME280;63555;49.920;17.868;2023-05-01T08:38:23;98947.59;;;29.47;25.37
69911;BME280;63555;49.920;17.868;2023-05-01T08:43:24;98936.09;;;29.75;24.63
69911;BME280;63555;49.920;17.868;2023-05-01T08:48:27;98936.69;;;30.00;24.27
69911;BME280;63555;49.920;17.868;2023-05-01T08:53:28;98935.16;;;30.04;24.36
69911;BME280;63555;49.920;17.868;2023-05-01T08:58:32;98939.03;;;30.43;23.98
69911;BME280;63555;49.920;17.868;2023-05-01T09:03:35;98920.50;;;30.81;22.92
69911;BME280;63555;49.920;17.868;2023-05-01T09:08:36;98914.63;;;31.29;22.42
69911;BME280;63555;49.920;17.868;2023-05-01T09:13:37;98915.63;;;31.40;21.93
69911;BME280;63555;49.920;17.868;2023-05-01T09:18:38;98910.75;;;31.58;21.61
69911;BME280;63555;49.920;17.868;2023-05-01T09:23:40;98899.84;;;31.58;22.68
69911;BME280;63555;49.920;17.868;2023-05-01T09:28:42;98899.59;;;31.60;22.48
69911;BME280;63555;49.920;17.868;2023-05-01T09:33:55;98874.84;;;32.39;22.22
69911;BME280;63555;49.920;17.868;2023-05-01T09:38:58;98882.47;;;33.07;21.44
69911;BME280;63555;49.920;17.868;2023-05-01T09:44:01;98882.03;;;33.47;21.26
69911;BME280;63555;49.920;17.868;2023-05-01T09:49:02;98869.56;;;33.62;21.46
69911;BME280;63555;49.920;17.868;2023-05-01T09:54:03;98854.66;;;33.42;21.02
69911;BME280;63555;49.920;17.868;2023-05-01T09:59:18;98856.00;;;33.40;21.33
69911;BME280;63555;49.920;17.868;2023-05-01T10:04:32;98844.63;;;33.95;21.01
69911;BME280;63555;49.920;17.868;2023-05-01T10:09:32;98849.84;;;34.59;21.22
69911;BME280;63555;49.920;17.868;2023-05-01T10:14:33;98844.22;;;35.11;20.81
69911;BME280;63555;49.920;17.868;2023-05-01T10:19:48;98836.28;;;35.51;20.23
69911;BME280;63555;49.920;17.868;2023-05-01T10:24:49;98825.28;;;35.76;19.66
69911;BME280;63555;49.920;17.868;2023-05-01T10:29:51;98816.25;;;35.50;18.96
69911;BME280;63555;49.920;17.868;2023-05-01T10:34:59;98808.03;;;35.55;19.25
69911;BME280;63555;49.920;17.868;2023-05-01T10:45:36;98799.72;;;35.96;20.28
69911;BME280;63555;49.920;17.868;2023-05-01T10:51:06;98790.41;;;35.87;19.18
69911;BME280;63555;49.920;17.868;2023-05-01T11:01:43;98778.94;;;35.59;19.57
69911;BME280;63555;49.920;17.868;2023-05-01T11:07:14;98760.97;;;36.02;19.31
69911;BME280;63555;49.920;17.868;2023-05-01T11:17:45;98752.09;;;36.21;18.67
69911;BME280;63555;49.920;17.868;2023-05-01T11:22:49;98744.41;;;35.28;19.51
69911;BME280;63555;49.920;17.868;2023-05-01T11:27:52;98736.41;;;33.77;20.65
69911;BME280;63555;49.920;17.868;2023-05-01T11:32:52;98740.63;;;33.43;20.45
69911;BME280;63555;49.920;17.868;2023-05-01T11:37:53;98730.56;;;32.79;20.94
69911;BME280;63555;49.920;17.868;2023-05-01T11:43:06;98719.59;;;34.06;21.24
69911;BME280;63555;49.920;17.868;2023-05-01T11:48:13;98709.31;;;35.25;19.57
69911;BME280;63555;49.920;17.868;2023-05-01T11:53:15;98711.50;;;34.52;20.26
69911;BME280;63555;49.920;17.868;2023-05-01T11:58:16;98713.97;;;34.43;20.06
69911;BME280;63555;49.920;17.868;2023-05-01T12:03:17;98711.88;;;33.82;19.49
69911;BME280;63555;49.920;17.868;2023-05-01T12:08:19;98705.50;;;33.24;20.81
69911;BME280;63555;49.920;17.868;2023-05-01T12:13:20;98707.16;;;31.86;21.69
69911;BME280;63555;49.920;17.868;2023-05-01T12:18:21;98687.41;;;32.00;21.56
69911;BME280;63555;49.920;17.868;2023-05-01T12:23:33;98681.63;;;32.46;21.57
69911;BME280;63555;49.920;17.868;2023-05-01T12:28:34;98678.72;;;32.04;22.05
69911;BME280;63555;49.920;17.868;2023-05-01T12:33:35;98672.34;;;32.47;21.48
69911;BME280;63555;49.920;17.868;2023-05-01T12:38:35;98670.25;;;33.28;20.13
69911;BME280;63555;49.920;17.868;2023-05-01T12:43:36;98654.50;;;32.34;20.83
69911;BME280;63555;49.920;17.868;2023-05-01T12:48:38;98642.47;;;32.30;20.60
69911;BME280;63555;49.920;17.868;2023-05-01T12:53:42;98621.41;;;32.62;20.29
69911;BME280;63555;49.920;17.868;2023-05-01T12:58:43;98642.78;;;32.71;19.89
69911;BME280;63555;49.920;17.868;2023-05-01T13:03:43;98628.75;;;32.57;19.93
69911;BME280;63555;49.920;17.868;2023-05-01T13:08:44;98632.44;;;31.04;21.25
69911;BME280;63555;49.920;17.868;2023-05-01T13:13:45;98618.44;;;29.55;22.45
69911;BME280;63555;49.920;17.868;2023-05-01T13:18:48;98614.78;;;29.78;21.75
69911;BME280;63555;49.920;17.868;2023-05-01T13:23:57;98608.38;;;30.29;22.42
69911;BME280;63555;49.920;17.868;2023-05-01T13:28:58;98604.25;;;30.94;21.72
69911;BME280;63555;49.920;17.868;2023-05-01T13:34:02;98595.88;;;31.00;21.78
69911;BME280;63555;49.920;17.868;2023-05-01T13:39:03;98591.72;;;31.31;21.68
69911;BME280;63555;49.920;17.868;2023-05-01T13:44:05;98580.06;;;30.59;22.02
69911;BME280;63555;49.920;17.868;2023-05-01T13:49:05;98581.31;;;30.06;22.81
69911;BME280;63555;49.920;17.868;2023-05-01T13:54:10;98578.22;;;29.17;23.40
69911;BME280;63555;49.920;17.868;2023-05-01T13:59:10;98579.91;;;28.71;24.16
69911;BME280;63555;49.920;17.868;2023-05-01T14:04:15;98558.81;;;28.62;24.77
69911;BME280;63555;49.920;17.868;2023-05-01T14:09:17;98551.59;;;29.71;23.31
69911;BME280;63555;49.920;17.868;2023-05-01T14:14:18;98545.81;;;30.63;22.44
69911;BME280;63555;49.920;17.868;2023-05-01T14:19:18;98538.53;;;30.52;23.06
69911;BME280;63555;49.920;17.868;2023-05-01T14:24:19;98530.63;;;30.17;22.92
69911;BME280;63555;49.920;17.868;2023-05-01T14:29:25;98521.88;;;30.31;23.21
69911;BME280;63555;49.920;17.868;2023-05-01T14:34:25;98519.88;;;29.93;23.76
69911;BME280;63555;49.920;17.868;2023-05-01T14:39:26;98514.56;;;30.15;22.99
69911;BME280;63555;49.920;17.868;2023-05-01T14:44:26;98510.22;;;29.69;23.40
69911;BME280;63555;49.920;17.868;2023-05-01T14:49:29;98496.09;;;28.98;23.78
69911;BME280;63555;49.920;17.868;2023-05-01T14:54:34;98494.53;;;29.02;24.23
69911;BME280;63555;49.920;17.868;2023-05-01T14:59:43;98497.75;;;28.99;23.94
69911;BME280;63555;49.920;17.868;2023-05-01T15:04:43;98497.06;;;28.57;24.17
69911;BME280;63555;49.920;17.868;2023-05-01T15:09:46;98505.09;;;28.40;24.55
69911;BME280;63555;49.920;17.868;2023-05-01T15:14:47;98500.84;;;28.44;24.39
69911;BME280;63555;49.920;17.868;2023-05-01T15:19:47;98495.63;;;28.90;24.82
69911;BME280;63555;49.920;17.868;2023-05-01T15:24:47;98485.84;;;28.77;24.33
69911;BME280;63555;49.920;17.868;2023-05-01T15:29:48;98483.31;;;28.23;24.83
69911;BME280;63555;49.920;17.868;2023-05-01T15:34:48;98480.91;;;28.15;24.71
69911;BME280;63555;49.920;17.868;2023-05-01T15:39:55;98468.75;;;27.83;24.78
69911;BME280;63555;49.920;17.868;2023-05-01T15:44:55;98473.94;;;27.13;25.70
69911;BME280;63555;49.920;17.868;2023-05-01T15:49:55;98473.97;;;26.15;26.60
69911;BME280;63555;49.920;17.868;2023-05-01T15:54:56;98467.06;;;25.69;26.50
69911;BME280;63555;49.920;17.868;2023-05-01T15:59:57;98469.25;;;25.22;27.16
69911;BME280;63555;49.920;17.868;2023-05-01T16:04:58;98454.31;;;25.13;27.72
69911;BME280;63555;49.920;17.868;2023-05-01T16:09:59;98450.53;;;25.27;27.81
69911;BME280;63555;49.920;17.868;2023-05-01T16:15:00;98457.91;;;25.38;27.72
69911;BME280;63555;49.920;17.868;2023-05-01T16:20:08;98454.41;;;24.09;29.20
69911;BME280;63555;49.920;17.868;2023-05-01T16:25:09;98450.53;;;22.50;31.14
69911;BME280;63555;49.920;17.868;2023-05-01T16:30:11;98455.06;;;21.38;32.56
69911;BME280;63555;49.920;17.868;2023-05-01T16:35:21;98454.97;;;20.59;33.98
69911;BME280;63555;49.920;17.868;2023-05-01T16:40:22;98454.69;;;19.95;34.67
69911;BME280;63555;49.920;17.868;2023-05-01T16:45:22;98464.22;;;19.52;35.42
69911;BME280;63555;49.920;17.868;2023-05-01T16:50:23;98466.97;;;19.21;36.15
69911;BME280;63555;49.920;17.868;2023-05-01T16:55:24;98456.78;;;18.93;36.91
69911;BME280;63555;49.920;17.868;2023-05-01T17:00:25;98459.41;;;18.70;37.40
69911;BME280;63555;49.920;17.868;2023-05-01T17:05:28;98470.47;;;18.51;37.85
69911;BME280;63555;49.920;17.868;2023-05-01T17:10:28;98469.56;;;18.28;38.61
69911;BME280;63555;49.920;17.868;2023-05-01T17:15:29;98472.28;;;18.03;39.12
69911;BME280;63555;49.920;17.868;2023-05-01T17:20:29;98475.81;;;17.79;39.55
69911;BME280;63555;49.920;17.868;2023-05-01T17:25:29;98475.66;;;17.57;39.89
69911;BME280;63555;49.920;17.868;2023-05-01T17:30:30;98479.81;;;17.35;40.60
69911;BME280;63555;49.920;17.868;2023-05-01T17:35:30;98489.25;;;17.13;41.20
69911;BME280;63555;49.920;17.868;2023-05-01T17:40:31;98491.38;;;16.93;41.56
69911;BME280;63555;49.920;17.868;2023-05-01T17:45:31;98492.81;;;16.71;42.30
69911;BME280;63555;49.920;17.868;2023-05-01T17:50:31;98492.38;;;16.50;43.17
69911;BME280;63555;49.920;17.868;2023-05-01T17:55:32;98497.75;;;16.32;43.89
69911;BME280;63555;49.920;17.868;2023-05-01T18:00:35;98497.50;;;16.17;44.38
69911;BME280;63555;49.920;17.868;2023-05-01T18:05:35;98507.72;;;16.04;44.84
69911;BME280;63555;49.920;17.868;2023-05-01T18:10:36;98508.63;;;15.87;45.64
69911;BME280;63555;49.920;17.868;2023-05-01T18:15:36;98501.34;;;15.71;46.10
69911;BME280;63555;49.920;17.868;2023-05-01T18:20:36;98499.50;;;15.54;46.36
69911;BME280;63555;49.920;17.868;2023-05-01T18:25:37;98507.19;;;15.39;47.13
69911;BME280;63555;49.920;17.868;2023-05-01T18:30:38;98501.09;;;15.29;47.53
69911;BME280;63555;49.920;17.868;2023-05-01T18:35:40;98512.94;;;15.17;48.08
69911;BME280;63555;49.920;17.868;2023-05-01T18:40:41;98505.06;;;15.07;48.37
69911;BME280;63555;49.920;17.868;2023-05-01T18:45:41;98519.38;;;14.96;48.76
69911;BME280;63555;49.920;17.868;2023-05-01T18:50:42;98516.94;;;14.85;48.90
69911;BME280;63555;49.920;17.868;2023-05-01T18:55:42;98522.16;;;14.77;49.31
69911;BME280;63555;49.920;17.868;2023-05-01T19:00:42;98529.00;;;14.70;49.61
69911;BME280;63555;49.920;17.868;2023-05-01T19:05:43;98532.09;;;14.65;49.81
69911;BME280;63555;49.920;17.868;2023-05-01T19:10:43;98536.19;;;14.60;49.88
69911;BME280;63555;49.920;17.868;2023-05-01T19:15:44;98538.44;;;14.55;50.05
69911;BME280;63555;49.920;17.868;2023-05-01T19:20:45;98542.50;;;14.49;50.19
69911;BME280;63555;49.920;17.868;2023-05-01T19:25:45;98538.88;;;14.41;50.32
69911;BME280;63555;49.920;17.868;2023-05-01T19:30:48;98532.09;;;14.28;50.66
69911;BME280;63555;49.920;17.868;2023-05-01T19:35:49;98525.16;;;14.18;50.76
69911;BME280;63555;49.920;17.868;2023-05-01T19:40:49;98531.59;;;14.06;50.87
69911;BME280;63555;49.920;17.868;2023-05-01T19:45:50;98533.88;;;13.91;51.43
69911;BME280;63555;49.920;17.868;2023-05-01T19:50:50;98532.47;;;13.77;51.71
69911;BME280;63555;49.920;17.868;2023-05-01T19:55:50;98528.84;;;13.59;52.30
69911;BME280;63555;49.920;17.868;2023-05-01T20:00:51;98536.81;;;13.39;53.04
69911;BME280;63555;49.920;17.868;2023-05-01T20:05:56;98532.22;;;13.22;53.37
69911;BME280;63555;49.920;17.868;2023-05-01T20:10:57;98528.03;;;13.20;53.75
69911;BME280;63555;49.920;17.868;2023-05-01T20:15:57;98528.03;;;13.29;54.09
69911;BME280;63555;49.920;17.868;2023-05-01T20:20:57;98521.19;;;13.36;53.78
69911;BME280;63555;49.920;17.868;2023-05-01T20:25:59;98525.53;;;13.37;53.83
69911;BME280;63555;49.920;17.868;2023-05-01T20:30:59;98533.31;;;13.29;53.88
69911;BME280;63555;49.920;17.868;2023-05-01T20:36:00;98516.69;;;13.08;54.26
69911;BME280;63555;49.920;17.868;2023-05-01T20:41:00;98530.97;;;12.86;55.15
69911;BME280;63555;49.920;17.868;2023-05-01T20:46:01;98540.38;;;12.60;56.14
69911;BME280;63555;49.920;17.868;2023-05-01T20:51:01;98536.50;;;12.33;56.80
69911;BME280;63555;49.920;17.868;2023-05-01T20:56:02;98534.28;;;12.08;57.41
69911;BME280;63555;49.920;17.868;2023-05-01T21:01:03;98543.31;;;11.85;58.28
69911;BME280;63555;49.920;17.868;2023-05-01T21:06:04;98540.38;;;11.67;59.41
69911;BME280;63555;49.920;17.868;2023-05-01T21:11:04;98536.50;;;11.50;59.81
69911;BME280;63555;49.920;17.868;2023-05-01T21:16:08;98538.03;;;11.32;60.33
69911;BME280;63555;49.920;17.868;2023-05-01T21:21:09;98540.34;;;11.14;60.88
69911;BME280;63555;49.920;17.868;2023-05-01T21:26:09;98542.53;;;10.98;61.15
69911;BME280;63555;49.920;17.868;2023-05-01T21:31:10;98539.09;;;10.86;61.65
69911;BME280;63555;49.920;17.868;2023-05-01T21:36:12;98542.00;;;10.72;62.09
69911;BME280;63555;49.920;17.868;2023-05-01T21:41:15;98554.47;;;10.59;62.71
69911;BME280;63555;49.920;17.868;2023-05-01T21:46:17;98551.25;;;10.44;63.14
69911;BME280;63555;49.920;17.868;2023-05-01T21:51:24;98554.94;;;10.30;63.87
69911;BME280;63555;49.920;17.868;2023-05-01T21:56:25;98554.91;;;10.19;63.79
69911;BME280;63555;49.920;17.868;2023-05-01T22:01:26;98548.91;;;10.06;64.45
69911;BME280;63555;49.920;17.868;2023-05-01T22:06:27;98556.06;;;9.93;64.88
69911;BME280;63555;49.920;17.868;2023-05-01T22:11:28;98553.19;;;9.84;65.06
69911;BME280;63555;49.920;17.868;2023-05-01T22:16:29;98559.03;;;9.77;65.71
69911;BME280;63555;49.920;17.868;2023-05-01T22:21:29;98552.44;;;9.71;65.81
69911;BME280;63555;49.920;17.868;2023-05-01T22:26:30;98557.56;;;9.62;66.07
69911;BME280;63555;49.920;17.868;2023-05-01T22:31:31;98556.09;;;9.57;66.13
69911;BME280;63555;49.920;17.868;2023-05-01T22:36:31;98549.47;;;9.52;66.47
69911;BME280;63555;49.920;17.868;2023-05-01T22:41:31;98561.41;;;9.45;66.85
69911;BME280;63555;49.920;17.868;2023-05-01T22:46:32;98550.63;;;9.37;67.11
69911;BME280;63555;49.920;17.868;2023-05-01T22:51:32;98554.75;;;9.28;67.30
69911;BME280;63555;49.920;17.868;2023-05-01T22:56:32;98555.94;;;9.24;67.44
69911;BME280;63555;49.920;17.868;2023-05-01T23:01:33;98552.06;;;9.17;68.02
69911;BME280;63555;49.920;17.868;2023-05-01T23:06:33;98555.03;;;9.12;67.76
69911;BME280;63555;49.920;17.868;2023-05-01T23:11:34;98545.69;;;9.08;68.33
69911;BME280;63555;49.920;17.868;2023-05-01T23:16:39;98548.78;;;9.02;68.75
69911;BME280;63555;49.920;17.868;2023-05-01T23:21:40;98542.28;;;8.95;68.60
69911;BME280;63555;49.920;17.868;2023-05-01T23:26:40;98533.16;;;8.88;68.93
69911;BME280;63555;49.920;17.868;2023-05-01T23:31:45;98538.75;;;8.83;69.28
69911;BME280;63555;49.920;17.868;2023-05-01T23:36:46;98532.66;;;8.83;69.88
69911;BME280;63555;49.920;17.868;2023-05-01T23:41:48;98527.50;;;8.81;69.75
69911;BME280;63555;49.920;17.868;2023-05-01T23:46:49;98525.72;;;8.82;69.81
69911;BME280;63555;49.920;17.868;2023-05-01T23:51:49;98525.94;;;8.79;70.02
69911;BME280;63555;49.920;17.868;2023-05-01T23:56:50;98518.38;;;8.74;70.63
